createdAt,value
2019-03-26T00:04:12.281Z,5.52
2019-03-26T00:09:11.221Z,5.51
2019-03-26T00:14:07.891Z,5.51
2019-03-26T00:19:04.601Z,5.57
2019-03-26T00:24:01.442Z,5.55
2019-03-26T00:28:58.289Z,5.61
2019-03-26T00:33:54.929Z,5.36
2019-03-26T00:38:51.622Z,5.44
2019-03-26T00:43:48.561Z,5.59
2019-03-26T00:48:45.207Z,5.57
2019-03-26T00:53:41.833Z,5.36
2019-03-26T00:58:38.467Z,5.33
2019-03-26T01:03:35.097Z,5.28
2019-03-26T01:08:31.747Z,5.21
2019-03-26T01:13:28.413Z,5.32
2019-03-26T01:18:25.168Z,5.16
2019-03-26T01:23:21.853Z,5.30
2019-03-26T01:28:18.406Z,5.25
2019-03-26T01:33:15.074Z,5.10
2019-03-26T01:38:11.685Z,5.08
2019-03-26T01:43:08.339Z,5.03
2019-03-26T01:48:04.970Z,5.00
2019-03-26T01:53:01.649Z,5.11
2019-03-26T01:57:58.586Z,5.08
2019-03-26T02:02:55.215Z,5.05
2019-03-26T02:07:51.843Z,4.97
2019-03-26T02:12:48.853Z,4.95
2019-03-26T02:17:45.631Z,4.97
2019-03-26T02:22:42.274Z,5.13
2019-03-26T02:27:38.955Z,5.08
2019-03-26T02:32:35.664Z,5.09
2019-03-26T02:37:32.310Z,4.88
2019-03-26T02:42:28.945Z,5.04
2019-03-26T02:47:25.619Z,5.05
2019-03-26T02:52:22.500Z,5.14
2019-03-26T02:57:19.211Z,5.10
2019-03-26T03:02:15.927Z,5.09
2019-03-26T03:07:12.601Z,5.05
2019-03-26T03:12:09.229Z,4.88
2019-03-26T03:17:05.807Z,5.02
2019-03-26T03:22:02.432Z,5.02
2019-03-26T03:26:59.145Z,4.69
2019-03-26T03:31:55.790Z,4.54
2019-03-26T03:36:52.457Z,4.72
2019-03-26T03:41:49.164Z,4.94
2019-03-26T03:46:48.605Z,5.03
2019-03-26T03:51:49.581Z,5.12
2019-03-26T03:56:49.609Z,5.13
2019-03-26T04:01:47.992Z,4.98
2019-03-26T04:06:44.616Z,4.93
2019-03-26T04:11:43.095Z,4.93
2019-03-26T04:16:39.743Z,5.05
2019-03-26T04:21:36.443Z,5.12
2019-03-26T04:26:33.106Z,5.25
2019-03-26T04:31:29.710Z,5.10
2019-03-26T04:36:26.734Z,5.23
2019-03-26T04:41:23.621Z,5.12
2019-03-26T04:46:20.187Z,4.99
2019-03-26T04:51:16.891Z,5.01
2019-03-26T04:56:13.579Z,5.04
2019-03-26T05:01:10.127Z,4.94
2019-03-26T05:06:06.823Z,4.90
2019-03-26T05:11:36.224Z,4.71
2019-03-26T05:16:32.987Z,4.81
2019-03-26T05:21:29.644Z,4.58
2019-03-26T05:26:26.712Z,4.50
2019-03-26T05:31:23.351Z,4.43
2019-03-26T05:36:19.962Z,4.59
2019-03-26T05:41:16.879Z,4.56
2019-03-26T05:46:13.684Z,4.75
2019-03-26T05:51:14.564Z,4.99
2019-03-26T05:56:15.241Z,5.09
2019-03-26T06:01:13.365Z,5.21
2019-03-26T06:06:10.207Z,5.15
2019-03-26T06:11:06.966Z,5.08
2019-03-26T06:16:03.657Z,5.07
2019-03-26T06:21:00.626Z,5.20
2019-03-26T06:25:57.336Z,5.09
2019-03-26T06:30:54.090Z,5.05
2019-03-26T06:35:50.830Z,5.11
2019-03-26T06:40:50.232Z,5.37
2019-03-26T06:45:47.123Z,5.37
2019-03-26T06:50:44.312Z,5.31
2019-03-26T06:55:40.995Z,5.67
2019-03-26T07:00:37.759Z,5.52
2019-03-26T07:05:34.487Z,5.82
2019-03-26T07:10:31.715Z,5.54
2019-03-26T07:15:28.506Z,5.86
2019-03-26T07:20:26.391Z,6.04
2019-03-26T07:25:23.187Z,6.18
2019-03-26T07:30:41.499Z,6.61
2019-03-26T07:35:38.357Z,6.89
2019-03-26T07:40:35.104Z,7.06
2019-03-26T07:45:32.127Z,6.51
2019-03-26T07:50:29.020Z,6.27
2019-03-26T07:55:25.638Z,6.41
2019-03-26T08:00:33.152Z,6.47
2019-03-26T08:05:30.227Z,6.41
2019-03-26T08:10:28.166Z,6.23
2019-03-26T08:22:35.780Z,6.63
2019-03-26T08:27:44.336Z,7.61
2019-03-26T08:32:40.951Z,7.91
2019-03-26T08:37:37.568Z,7.24
2019-03-26T08:42:34.209Z,7.16
2019-03-26T08:47:30.839Z,7.25
2019-03-26T08:52:27.477Z,8.02
2019-03-26T08:57:24.276Z,8.54
2019-03-26T09:02:20.925Z,8.77
2019-03-26T09:07:17.939Z,9.20
2019-03-26T09:12:14.732Z,8.35
2019-03-26T09:17:11.409Z,8.64
2019-03-26T09:22:08.177Z,10.58
2019-03-26T09:27:05.155Z,11.73
2019-03-26T09:32:02.006Z,11.53
2019-03-26T09:36:58.565Z,9.95
2019-03-26T09:41:55.418Z,8.41
2019-03-26T09:46:52.385Z,8.08
2019-03-26T09:51:49.078Z,7.56
2019-03-26T09:56:45.852Z,7.91
2019-03-26T10:01:42.630Z,7.91
2019-03-26T10:06:39.275Z,8.33
2019-03-26T10:11:35.822Z,8.41
2019-03-26T10:16:32.612Z,8.87
2019-03-26T10:21:29.385Z,10.39
2019-03-26T10:26:26.037Z,10.81
2019-03-26T10:31:22.663Z,10.79
2019-03-26T10:36:19.451Z,10.97
2019-03-26T10:41:18.643Z,11.51
2019-03-26T10:46:14.786Z,11.59
2019-03-26T10:51:11.514Z,11.06
2019-03-26T10:56:08.299Z,11.07
2019-03-26T11:01:05.058Z,11.25
2019-03-26T11:06:01.766Z,11.29
2019-03-26T11:10:58.373Z,11.63
2019-03-26T11:15:55.099Z,11.19
2019-03-26T11:21:01.942Z,10.91
2019-03-26T11:25:50.229Z,10.36
2019-03-26T11:30:47.045Z,9.67
2019-03-26T11:35:43.769Z,9.59
2019-03-26T11:40:40.490Z,9.83
2019-03-26T11:45:37.348Z,10.14
2019-03-26T11:50:33.964Z,10.83
2019-03-26T11:55:30.713Z,10.64
2019-03-26T12:00:36.039Z,10.07
2019-03-26T12:05:32.794Z,9.69
2019-03-26T12:10:30.621Z,9.57
2019-03-26T12:15:27.463Z,9.66
2019-03-26T12:20:26.298Z,9.61
2019-03-26T12:25:23.342Z,9.48
2019-03-26T12:36:40.243Z,10.47
2019-03-26T13:05:40.662Z,10.37
2019-03-26T13:11:52.421Z,10.63
2019-03-26T13:23:28.744Z,11.37
2019-03-26T13:28:40.325Z,11.59
2019-03-26T13:33:51.159Z,11.51
2019-03-26T13:38:53.016Z,11.06
2019-03-26T13:43:54.493Z,10.28
2019-03-26T13:48:55.770Z,10.43
2019-03-26T13:54:05.447Z,10.74
2019-03-26T13:59:15.388Z,10.54
2019-03-26T14:04:36.149Z,10.43
2019-03-26T14:09:59.050Z,10.14
2019-03-26T14:15:42.788Z,10.15
2019-03-26T14:20:56.406Z,10.74
2019-03-26T18:07:41.382Z,8.11
2019-03-26T18:13:10.111Z,8.06
2019-03-26T18:30:40.866Z,7.68
2019-03-26T18:36:36.828Z,7.57
2019-03-26T18:42:22.481Z,7.49
2019-03-26T18:53:34.221Z,7.63
2019-03-26T19:05:26.296Z,7.48
2019-03-26T19:10:30.955Z,7.26
2019-03-26T19:15:28.105Z,7.04
2019-03-26T19:20:28.204Z,7.13
2019-03-26T19:25:28.304Z,7.10
2019-03-26T19:36:46.911Z,6.90
2019-03-26T19:41:44.038Z,6.75
2019-03-26T19:46:41.090Z,6.88
2019-03-26T19:51:37.962Z,6.82
2019-03-26T19:56:39.174Z,6.96
2019-03-26T20:01:40.023Z,6.81
2019-03-26T20:06:39.611Z,6.62
2019-03-26T20:11:43.955Z,6.58
2019-03-26T20:16:42.057Z,6.56
2019-03-26T20:21:39.180Z,6.60
2019-03-26T20:26:36.335Z,6.61
2019-03-26T20:31:33.372Z,6.86
2019-03-26T20:36:30.355Z,6.87
2019-03-26T20:41:27.376Z,6.77
2019-03-26T20:46:24.044Z,6.73
2019-03-26T20:51:25.829Z,6.72
2019-03-26T20:56:25.570Z,6.52
2019-03-26T21:01:23.662Z,6.48
2019-03-26T21:06:20.630Z,6.51
2019-03-26T21:11:30.617Z,6.39
2019-03-26T21:16:27.656Z,6.30
2019-03-26T21:21:25.994Z,6.59
2019-03-26T21:26:24.320Z,6.54
2019-03-26T21:31:23.729Z,6.44
2019-03-26T21:36:20.532Z,6.46
2019-03-26T21:41:19.142Z,6.42
2019-03-26T21:46:15.838Z,6.28
2019-03-26T21:51:12.853Z,6.34
2019-03-26T21:56:10.787Z,6.40
2019-03-26T22:01:08.061Z,6.53
2019-03-26T22:06:06.331Z,6.52
2019-03-26T22:11:03.018Z,6.45
2019-03-26T22:16:03.021Z,6.28
2019-03-26T22:21:02.692Z,6.30
2019-03-26T22:25:59.728Z,6.20
2019-03-26T22:30:56.449Z,6.28
2019-03-26T22:35:55.873Z,6.37
2019-03-26T22:40:53.352Z,6.49
2019-03-26T22:45:50.028Z,6.43
2019-03-26T22:50:47.735Z,6.39
2019-03-26T22:55:44.318Z,6.38
2019-03-26T23:00:41.334Z,6.39
2019-03-26T23:05:38.159Z,6.49
2019-03-26T23:10:34.884Z,6.18
2019-03-26T23:15:31.663Z,6.18
2019-03-26T23:20:28.691Z,6.01
2019-03-26T23:25:25.373Z,6.14
2019-03-26T23:30:22.030Z,6.14
2019-03-26T23:35:23.337Z,6.19
2019-03-26T23:40:20.605Z,6.09
2019-03-26T23:45:17.767Z,6.07
2019-03-26T23:50:20.965Z,6.12
2019-03-26T23:55:21.514Z,6.02
